Time;durP1;ratioP1;P1;durP2;ratioP2;P2;SDS_P1;SDS_P2;PMS_P1;PMS_P2;Temp;Humidity;BMP_temperature;BMP_pressure;BME280_temperature;BME280_humidity;BME280_pressure;Samples;Min_cycle;Max_cycle;Signal;HPM_P1;HPM_P2
2022/07/10 00:01:51;;;;;;;1.63;1.40;;;18.80;99.90;;;;;;4988198;28;20030;-51
2022/07/10 00:04:18;;;;;;;2.70;1.70;;;18.80;99.90;;;;;;5023697;28;20416;-51
2022/07/10 00:06:46;;;;;;;4.00;1.73;;;18.80;99.90;;;;;;5023047;28;20025;-51
2022/07/10 00:09:15;;;;;;;2.63;1.55;;;18.80;99.90;;;;;;5022202;28;20034;-51
2022/07/10 00:11:42;;;;;;;4.50;1.98;;;18.90;99.90;;;;;;4988269;28;20483;-51
2022/07/10 00:14:08;;;;;;;3.58;1.75;;;18.80;99.90;;;;;;5023151;28;20045;-51
2022/07/10 00:16:34;;;;;;;2.95;1.80;;;18.60;99.90;;;;;;5022286;28;20462;-51
2022/07/10 00:19:01;;;;;;;2.95;1.65;;;18.70;99.90;;;;;;5022174;28;20072;-51
2022/07/10 00:21:26;;;;;;;4.43;1.50;;;18.90;99.90;;;;;;5022361;28;20017;-51
2022/07/10 00:23:52;;;;;;;2.35;1.60;;;18.60;99.90;;;;;;5020616;28;20038;-51
2022/07/10 00:26:18;;;;;;;3.58;1.60;;;18.70;99.90;;;;;;5023206;28;20389;-51
2022/07/10 00:28:44;;;;;;;2.75;1.52;;;18.60;99.90;;;;;;5023154;28;20018;-51
2022/07/10 00:31:12;;;;;;;3.45;1.40;;;18.60;99.90;;;;;;5022979;28;20026;-51
2022/07/10 00:33:38;;;;;;;2.05;1.48;;;18.60;99.90;;;;;;5020859;28;20064;-51
2022/07/10 00:36:05;;;;;;;1.80;1.60;;;18.50;99.90;;;;;;5003847;28;20104;-51
2022/07/10 00:38:31;;;;;;;5.00;1.50;;;18.50;99.90;;;;;;4987577;28;20080;-51
2022/07/10 00:40:57;;;;;;;4.53;1.55;;;;;;;;;;5022040;28;20108;-51
2022/07/10 00:43:23;;;;;;;3.03;1.50;;;18.50;99.90;;;;;;5022449;28;20076;-51
2022/07/10 00:45:49;;;;;;;2.70;1.60;;;18.50;99.90;;;;;;5022849;28;20430;-51
2022/07/10 00:48:15;;;;;;;2.75;1.35;;;18.50;99.90;;;;;;5022852;28;20026;-51
2022/07/10 00:50:44;;;;;;;2.58;1.58;;;18.40;99.90;;;;;;5020496;28;20509;-52
2022/07/10 00:53:11;;;;;;;4.20;1.30;;;18.30;99.90;;;;;;5022609;28;20025;-51
2022/07/10 00:55:38;;;;;;;6.88;1.75;;;18.20;99.90;;;;;;5022223;28;20018;-51
2022/07/10 00:58:10;;;;;;;2.42;1.60;;;18.20;99.90;;;;;;5022010;28;20125;-52
2022/07/10 01:00:39;;;;;;;;;;;18.20;99.90;;;;;;5022431;28;20044;-52
2022/07/10 01:03:05;;;;;;;7.80;1.88;;;18.20;99.90;;;;;;5023639;28;19905;-51
2022/07/10 01:05:31;;;;;;;2.55;1.75;;;18.10;99.90;;;;;;5022066;28;20386;-51
2022/07/10 01:07:57;;;;;;;2.38;1.35;;;18.10;99.90;;;;;;5020042;28;20051;-51
2022/07/10 01:10:23;;;;;;;2.47;1.30;;;18.00;99.90;;;;;;4971375;28;20493;-51
2022/07/10 01:12:49;;;;;;;3.17;1.63;;;18.00;99.90;;;;;;5022771;28;20021;-51
2022/07/10 01:15:15;;;;;;;2.30;1.45;;;17.90;99.90;;;;;;5022486;28;20026;-51
2022/07/10 01:17:41;;;;;;;1.90;1.35;;;17.90;99.90;;;;;;5022471;28;20061;-51
2022/07/10 01:20:08;;;;;;;4.45;1.55;;;17.90;99.90;;;;;;5023997;28;20061;-51
2022/07/10 01:22:37;;;;;;;3.00;1.67;;;17.90;99.90;;;;;;5025370;28;20026;-51
2022/07/10 01:25:03;;;;;;;3.20;1.80;;;17.90;99.90;;;;;;5025254;28;20401;-51
2022/07/10 01:27:29;;;;;;;3.70;1.77;;;18.30;99.90;;;;;;5025351;28;20022;-51
2022/07/10 01:29:55;;;;;;;1.80;1.50;;;17.90;99.90;;;;;;4990647;28;20560;-52
2022/07/10 01:32:20;;;;;;;3.40;1.85;;;17.90;99.90;;;;;;5024074;28;20037;-51
2022/07/10 01:34:47;;;;;;;2.33;1.48;;;17.70;99.90;;;;;;5007504;28;20397;-51
2022/07/10 01:37:13;;;;;;;2.65;1.33;;;;;;;;;;5025991;28;20061;-51
2022/07/10 01:39:39;;;;;;;6.63;1.60;;;17.60;99.90;;;;;;5025500;28;20519;-51
2022/07/10 01:42:05;;;;;;;3.45;1.50;;;17.70;99.90;;;;;;5024950;28;20013;-52
2022/07/10 01:44:30;;;;;;;1.92;1.40;;;17.60;99.90;;;;;;4974022;28;20080;-51
2022/07/10 01:46:56;;;;;;;2.85;1.48;;;17.70;99.90;;;;;;5025500;28;20025;-51
2022/07/10 01:49:22;;;;;;;3.22;1.63;;;17.60;99.90;;;;;;5025532;28;20021;-51
2022/07/10 01:51:48;;;;;;;2.00;1.60;;;17.60;99.90;;;;;;5025437;28;20025;-51
2022/07/10 01:54:13;;;;;;;2.78;1.98;;;17.70;99.90;;;;;;5007254;28;20045;-51
2022/07/10 01:56:39;;;;;;;3.03;1.73;;;17.70;99.90;;;;;;5025469;28;20466;-51
2022/07/10 01:59:05;;;;;;;4.53;1.65;;;17.70;99.90;;;;;;5024826;28;20369;-51
2022/07/10 02:01:31;;;;;;;5.47;1.48;;;17.70;99.90;;;;;;5025283;28;20464;-51
2022/07/10 02:06:42;;;;;;;3.88;1.80;;;17.90;99.90;;;;;;5024400;28;20168;-51
2022/07/10 02:09:08;;;;;;;3.80;1.80;;;17.70;99.90;;;;;;5025157;28;20105;-51
2022/07/10 02:11:33;;;;;;;3.00;1.85;;;17.70;99.90;;;;;;5024434;28;20030;-51
2022/07/10 02:13:59;;;;;;;6.72;1.60;;;17.80;99.90;;;;;;5024289;28;20021;-51
2022/07/10 02:16:25;;;;;;;3.05;1.50;;;17.70;99.90;;;;;;5024640;28;20025;-51
2022/07/10 02:18:50;;;;;;;3.67;1.88;;;17.60;99.90;;;;;;5024633;28;20071;-52
2022/07/10 02:21:16;;;;;;;2.20;1.50;;;17.60;99.90;;;;;;5024946;28;20025;-51
2022/07/10 02:23:42;;;;;;;4.22;1.35;;;17.60;99.90;;;;;;5024731;28;20030;-51
2022/07/10 02:26:08;;;;;;;3.25;1.60;;;17.50;99.90;;;;;;5024972;28;20026;-50
2022/07/10 02:28:34;;;;;;;2.58;1.73;;;17.50;99.90;;;;;;5022884;28;20061;-51
2022/07/10 02:31:00;;;;;;;2.60;1.55;;;17.50;99.90;;;;;;5023324;28;20095;-51
2022/07/10 02:33:25;;;;;;;2.95;1.67;;;17.50;99.90;;;;;;5023872;28;20473;-50
2022/07/10 02:35:51;;;;;;;2.13;1.67;;;17.50;99.90;;;;;;5024471;28;20029;-51
2022/07/10 02:38:17;;;;;;;2.25;1.77;;;17.60;99.90;;;;;;5022686;28;20052;-51
2022/07/10 02:40:43;;;;;;;4.38;2.33;;;17.60;99.90;;;;;;5022843;28;20054;-51
2022/07/10 02:43:09;;;;;;;3.40;1.60;;;17.60;99.90;;;;;;5024222;28;20083;-51
2022/07/10 02:45:35;;;;;;;5.63;1.85;;;17.50;99.90;;;;;;5005283;28;20045;-51
2022/07/10 02:48:01;;;;;;;3.75;1.85;;;17.60;99.90;;;;;;5021908;28;20038;-51
2022/07/10 02:50:26;;;;;;;2.22;1.70;;;17.60;99.90;;;;;;5023863;28;20034;-51
2022/07/10 02:52:52;;;;;;;9.77;1.92;;;17.80;99.90;;;;;;5005871;28;20064;-51
2022/07/10 02:55:18;;;;;;;2.40;1.80;;;17.60;99.90;;;;;;5024464;28;20465;-51
2022/07/10 02:57:43;;;;;;;2.80;1.63;;;17.70;99.90;;;;;;5024356;28;20072;-50
2022/07/10 03:00:11;;;;;;;3.90;1.80;;;17.70;99.90;;;;;;5024045;28;20025;-50
2022/07/10 03:02:37;;;;;;;2.95;1.60;;;17.80;99.90;;;;;;5023798;28;20029;-51
2022/07/10 03:05:03;;;;;;;3.45;1.80;;;17.70;99.90;;;;;;5023667;28;20026;-51
2022/07/10 03:07:28;;;;;;;4.13;1.90;;;17.80;99.90;;;;;;4988971;28;20045;-51
2022/07/10 03:09:54;;;;;;;4.40;1.60;;;17.70;99.90;;;;;;5023446;28;20117;-51
2022/07/10 03:12:20;;;;;;;2.78;1.63;;;17.50;99.90;;;;;;5024162;28;20450;-51
2022/07/10 03:14:45;;;;;;;3.60;2.17;;;17.80;99.90;;;;;;5005795;28;20131;-51
2022/07/10 03:17:11;;;;;;;2.72;1.80;;;17.80;99.90;;;;;;5005544;28;20049;-51
2022/07/10 03:19:38;;;;;;;3.45;1.45;;;17.80;99.90;;;;;;5005235;28;20053;-51
2022/07/10 03:22:04;;;;;;;4.90;2.20;;;17.60;99.90;;;;;;5023027;28;20496;-51
2022/07/10 03:24:29;;;;;;;3.00;1.55;;;17.60;99.90;;;;;;5023384;28;20025;-50
2022/07/10 03:26:55;;;;;;;3.38;1.83;;;17.50;99.90;;;;;;5021229;28;20385;-50
2022/07/10 03:29:21;;;;;;;2.53;2.00;;;17.60;99.90;;;;;;4989210;28;20041;-51
2022/07/10 03:31:47;;;;;;;4.25;1.70;;;17.60;99.90;;;;;;5005408;28;20033;-51
2022/07/10 03:34:12;;;;;;;4.18;1.70;;;17.60;99.90;;;;;;5023754;28;20108;-51
2022/07/10 03:36:39;;;;;;;2.10;1.65;;;17.60;99.90;;;;;;5023387;28;20029;-51
2022/07/10 03:39:05;;;;;;;2.97;1.60;;;17.60;99.90;;;;;;5004637;28;20046;-50
2022/07/10 03:41:30;;;;;;;1.58;1.40;;;17.70;99.90;;;;;;5004555;28;20033;-51
2022/07/10 03:43:56;;;;;;;7.40;5.03;;;17.80;99.90;;;;;;5022271;28;20017;-51
2022/07/10 03:46:22;;;;;;;347.35;313.92;;;17.80;99.90;;;;;;5021465;28;20055;-51
2022/07/10 03:48:48;;;;;;;2.83;1.60;;;17.80;99.90;;;;;;5005134;28;20466;-51
2022/07/10 03:51:13;;;;;;;4.60;1.98;;;17.90;99.90;;;;;;5004753;28;20030;-50
2022/07/10 03:53:39;;;;;;;4.82;1.65;;;17.90;99.90;;;;;;5004779;28;20034;-51
2022/07/10 03:56:05;;;;;;;2.67;1.52;;;17.90;99.90;;;;;;5023038;28;20057;-51
2022/07/10 03:58:31;;;;;;;2.97;1.85;;;18.00;99.90;;;;;;4971713;28;20115;-51
2022/07/10 04:00:56;;;;;;;2.58;1.70;;;18.00;99.90;;;;;;5004397;28;20065;-51
2022/07/10 04:03:22;;;;;;;2.97;1.60;;;18.00;99.90;;;;;;5022958;28;20075;-51
2022/07/10 04:05:48;;;;;;;4.97;2.05;;;18.00;99.90;;;;;;5004833;28;20048;-51
2022/07/10 04:08:14;;;;;;;3.28;1.90;;;18.10;99.90;;;;;;5023113;28;20057;-50
2022/07/10 04:10:39;;;;;;;2.30;1.58;;;18.10;99.90;;;;;;5022939;28;20101;-51
2022/07/10 04:13:05;;;;;;;3.03;1.80;;;18.10;99.90;;;;;;5022192;28;20021;-51
2022/07/10 04:15:31;;;;;;;12.18;1.70;;;18.10;99.90;;;;;;5022413;28;20087;-51
2022/07/10 04:17:57;;;;;;;2.10;1.70;;;18.10;99.90;;;;;;5022302;28;20037;-51
2022/07/10 04:32:27;;;;;;;2.10;1.07;;;;;;;;;;5027267;27;1399682;-49
2022/07/10 04:34:54;;;;;;;2.20;1.40;;;18.90;99.90;;;;;;5053976;28;20523;-50
2022/07/10 04:37:20;;;;;;;1.88;1.40;;;18.80;99.90;;;;;;5066824;28;20379;-50
2022/07/10 04:39:46;;;;;;;1.75;1.33;;;18.80;99.90;;;;;;4983126;28;20120;-50
2022/07/10 04:42:11;;;;;;;2.45;1.60;;;18.80;99.90;;;;;;5001593;28;20458;-50
2022/07/10 04:44:37;;;;;;;1.98;1.00;;;18.90;99.90;;;;;;5056998;28;20029;-50
2022/07/10 04:47:04;;;;;;;2.58;1.55;;;19.00;99.90;;;;;;5014068;28;20079;-50
2022/07/10 04:49:30;;;;;;;2.67;1.48;;;19.00;99.90;;;;;;5065976;28;20372;-50
2022/07/10 04:51:56;;;;;;;2.25;1.60;;;19.00;99.90;;;;;;5055749;28;20030;-50
2022/07/10 04:54:22;;;;;;;3.40;1.35;;;19.00;99.90;;;;;;5062356;28;20031;-50
2022/07/10 04:56:48;;;;;;;2.22;1.48;;;;;;;;;;5031127;28;20041;-50
2022/07/10 04:59:14;;;;;;;5.30;1.77;;;19.30;99.90;;;;;;5067419;28;20140;-50
2022/07/10 05:01:40;;;;;;;4.03;1.52;;;19.40;99.90;;;;;;5056354;28;20047;-50
2022/07/10 05:04:06;;;;;;;2.50;1.63;;;19.60;99.90;;;;;;5059495;28;20413;-50
2022/07/10 05:06:31;;;;;;;4.18;1.30;;;19.60;99.90;;;;;;5013066;28;20037;-50
2022/07/10 05:08:57;;;;;;;4.10;1.55;;;19.70;99.90;;;;;;5065555;28;20535;-50
2022/07/10 05:11:23;;;;;;;3.47;1.85;;;19.80;99.90;;;;;;4981227;28;20396;-50
2022/07/10 05:13:49;;;;;;;2.22;1.23;;;19.90;99.90;;;;;;5057318;28;20017;-50
2022/07/10 05:16:16;;;;;;;3.72;1.40;;;19.90;99.90;;;;;;5014845;28;20040;-50
2022/07/10 05:18:41;;;;;;;4.65;1.83;;;19.90;99.90;;;;;;5065593;28;20104;-50
2022/07/10 05:21:08;;;;;;;2.67;1.70;;;19.90;99.90;;;;;;5059030;28;20111;-50
2022/07/10 05:23:34;;;;;;;2.22;1.35;;;20.00;99.90;;;;;;5048186;28;20037;-50
2022/07/10 05:26:00;;;;;;;3.05;1.60;;;20.00;99.90;;;;;;5059190;28;20060;-50
2022/07/10 05:28:26;;;;;;;3.88;1.30;;;20.10;99.90;;;;;;5014901;28;20064;-50
2022/07/10 05:30:51;;;;;;;1.90;1.40;;;20.00;99.90;;;;;;5058183;28;20045;-50
2022/07/10 05:33:17;;;;;;;1.35;1.15;;;20.20;99.90;;;;;;5033400;28;20046;-50
2022/07/10 05:35:43;;;;;;;2.95;1.60;;;20.20;99.90;;;;;;5047695;28;20029;-50
2022/07/10 05:38:09;;;;;;;6.43;2.42;;;20.20;99.90;;;;;;5042530;28;20112;-50
2022/07/10 05:40:35;;;;;;;2.70;1.58;;;20.30;99.90;;;;;;5041550;28;20116;-50
2022/07/10 05:43:01;;;;;;;2.00;1.60;;;20.20;99.90;;;;;;5041777;28;20029;-50
2022/07/10 05:45:27;;;;;;;2.95;2.03;;;20.30;99.90;;;;;;5043602;28;20059;-50
2022/07/10 05:47:53;;;;;;;3.10;2.15;;;20.30;99.90;;;;;;4992848;28;20412;-50
2022/07/10 05:50:19;;;;;;;4.65;1.80;;;20.50;99.90;;;;;;4986659;28;20480;-50
2022/07/10 05:52:45;;;;;;;2.08;1.70;;;20.50;99.90;;;;;;5026401;28;20033;-50
2022/07/10 05:55:10;;;;;;;3.58;1.83;;;20.40;99.90;;;;;;5042594;28;20087;-50
2022/07/10 05:57:36;;;;;;;3.28;1.90;;;20.50;99.90;;;;;;5048556;28;20376;-51
2022/07/10 06:00:07;;;;;;;1.92;1.33;;;20.60;99.90;;;;;;5016634;28;20388;-49
2022/07/10 06:02:32;;;;;;;4.07;1.70;;;20.60;99.90;;;;;;4991511;28;20055;-49
2022/07/10 06:04:59;;;;;;;1.50;1.20;;;20.60;99.90;;;;;;4991190;28;20041;-51
2022/07/10 06:07:25;;;;;;;3.60;1.83;;;20.80;99.90;;;;;;4991571;28;20053;-50
2022/07/10 06:09:51;;;;;;;2.63;1.30;;;20.90;99.90;;;;;;4988094;28;20070;-50
2022/07/10 06:12:17;;;;;;;1.33;0.93;;;21.10;99.90;;;;;;4971924;28;20073;-50
2022/07/10 06:14:42;;;;;;;2.92;1.50;;;21.10;99.90;;;;;;4974091;28;20093;-50
2022/07/10 06:17:08;;;;;;;3.53;1.83;;;21.10;99.90;;;;;;4990135;28;20410;-50
2022/07/10 06:19:34;;;;;;;2.42;1.40;;;21.20;99.90;;;;;;4990466;28;20034;-50
2022/07/10 06:24:44;;;;;;;1.95;1.45;;;21.10;99.90;;;;;;4991421;28;20041;-49
2022/07/10 06:27:11;;;;;;;2.88;0.95;;;21.00;99.90;;;;;;4991675;28;20421;-49
2022/07/10 06:29:37;;;;;;;1.85;1.10;;;21.10;99.90;;;;;;4989980;28;20039;-54
2022/07/10 06:32:03;;;;;;;1.42;1.17;;;21.00;99.90;;;;;;4990641;28;20105;-51
2022/07/10 06:34:29;;;;;;;1.92;1.10;;;21.10;99.90;;;;;;5003767;28;20037;-55
2022/07/10 06:36:55;;;;;;;1.38;1.10;;;21.40;99.90;;;;;;5029350;28;20018;-54
2022/07/10 06:39:21;;;;;;;1.90;1.30;;;21.50;99.90;;;;;;5009301;28;20033;-53
2022/07/10 06:41:47;;;;;;;2.95;1.63;;;21.50;99.90;;;;;;5022151;28;20491;-58
2022/07/10 06:44:12;;;;;;;1.35;1.25;;;21.70;99.90;;;;;;5020244;28;20029;-50
2022/07/10 06:46:38;;;;;;;1.67;1.05;;;21.70;99.90;;;;;;5022912;28;20055;-47
2022/07/10 06:49:04;;;;;;;1.60;1.30;;;21.70;99.90;;;;;;5002940;28;20049;-49
2022/07/10 06:51:31;;;;;;;1.60;1.23;;;21.80;99.90;;;;;;5024106;28;20021;-50
2022/07/10 06:53:57;;;;;;;3.28;1.02;;;;;;;;;;5020607;28;20026;-49
2022/07/10 06:56:23;;;;;;;1.90;1.02;;;;;;;;;;5026751;28;20013;-49
2022/07/10 06:58:49;;;;;;;2.45;1.33;;;;;;;;;;5020257;28;20068;-50
2022/07/10 07:01:15;;;;;;;5.60;1.17;;;;;;;;;;5024531;28;20073;-55
2022/07/10 07:03:42;;;;;;;1.60;1.42;;;;;;;;;;5006675;28;20499;-51
2022/07/10 07:06:10;;;;;;;1.20;1.10;;;;;;;;;;5021939;28;20018;-51
2022/07/10 07:08:37;;;;;;;1.95;1.30;;;;;;;;;;5029586;28;20109;-51
2022/07/10 07:11:03;;;;;;;1.42;1.33;;;;;;;;;;5009280;28;20038;-51
2022/07/10 07:13:29;;;;;;;1.42;1.33;;;;;;;;;;5023722;28;20036;-51
2022/07/10 07:16:00;;;;;;;2.13;1.15;;;;;;;;;;5003893;28;20046;-51
2022/07/10 07:18:32;;;;;;;1.53;1.33;;;22.20;99.90;;;;;;5020275;28;20354;-51
2022/07/10 07:23:43;;;;;;;1.63;1.40;;;22.20;99.90;;;;;;5020443;28;20063;-51
2022/07/10 07:26:09;;;;;;;1.58;1.15;;;22.00;99.90;;;;;;5032351;28;20500;-51
2022/07/10 07:28:35;;;;;;;1.65;1.13;;;22.20;99.90;;;;;;5032437;28;20053;-51
2022/07/10 07:31:01;;;;;;;1.90;1.20;;;22.50;99.90;;;;;;5037348;28;20053;-51
2022/07/10 07:33:27;;;;;;;2.22;1.40;;;22.70;99.90;;;;;;5000426;28;20164;-52
2022/07/10 07:35:52;;;;;;;0.75;0.75;;;22.80;99.90;;;;;;5051969;28;20457;-51
2022/07/10 07:38:18;;;;;;;1.42;0.95;;;22.80;99.90;;;;;;4985981;28;20029;-52
2022/07/10 07:40:44;;;;;;;3.17;1.50;;;22.80;99.90;;;;;;5048865;28;20118;-51
2022/07/10 07:43:11;;;;;;;1.17;1.00;;;23.00;99.90;;;;;;5047055;28;20037;-51
2022/07/10 07:45:37;;;;;;;1.92;1.20;;;23.00;99.90;;;;;;5051407;28;21679;-51
2022/07/10 07:48:03;;;;;;;3.55;2.00;;;23.30;99.90;;;;;;5046961;28;20108;-52
2022/07/10 07:50:34;;;;;;;1.13;1.00;;;23.20;99.90;;;;;;5001735;28;20033;-51
2022/07/10 07:53:01;;;;;;;1.30;1.03;;;23.30;99.90;;;;;;5048202;28;20086;-51
2022/07/10 07:55:28;;;;;;;1.20;1.10;;;23.30;99.90;;;;;;5043103;28;20499;-51
2022/07/10 07:57:55;;;;;;;1.30;1.05;;;23.30;99.90;;;;;;5051801;28;20434;-51
2022/07/10 08:00:22;;;;;;;1.45;1.33;;;23.10;99.90;;;;;;5051355;28;20041;-51
2022/07/10 08:02:49;;;;;;;1.30;1.10;;;22.90;99.90;;;;;;5026724;28;20026;-51
2022/07/10 08:05:15;;;;;;;3.17;1.25;;;23.00;99.90;;;;;;5051165;28;20436;-51
2022/07/10 08:07:44;;;;;;;1.85;1.52;;;23.20;99.90;;;;;;5051088;28;20029;-51
2022/07/10 08:10:16;;;;;;;2.50;1.30;;;23.10;99.90;;;;;;5049995;28;20025;-51
2022/07/10 08:12:43;;;;;;;2.95;1.30;;;23.40;99.90;;;;;;5051528;28;20031;-51
2022/07/10 08:15:10;;;;;;;2.65;1.10;;;23.30;99.90;;;;;;5050009;28;20050;-51
2022/07/10 08:17:37;;;;;;;1.58;1.13;;;23.60;99.90;;;;;;5046912;28;20073;-51
2022/07/10 08:20:05;;;;;;;0.90;0.80;;;23.60;99.90;;;;;;5045327;28;20036;-51
2022/07/10 08:22:31;;;;;;;1.23;1.10;;;23.50;99.90;;;;;;5051405;28;20124;-51
2022/07/10 08:24:57;;;;;;;1.15;1.05;;;;;;;;;;5050865;28;20063;-52
2022/07/10 08:27:23;;;;;;;1.48;1.10;;;23.80;99.90;;;;;;4997837;28;20045;-52
2022/07/10 08:29:49;;;;;;;1.20;0.73;;;24.10;99.90;;;;;;5049889;28;20025;-52
2022/07/10 08:32:15;;;;;;;1.15;0.82;;;23.80;99.90;;;;;;5049565;28;20132;-52
2022/07/10 08:34:40;;;;;;;1.20;0.90;;;23.60;99.90;;;;;;5043021;28;20028;-52
2022/07/10 08:37:06;;;;;;;1.08;0.88;;;23.70;99.90;;;;;;5051751;28;20032;-52
2022/07/10 08:39:33;;;;;;;1.77;0.95;;;23.60;99.90;;;;;;4998617;28;20095;-52
2022/07/10 08:41:59;;;;;;;1.52;1.10;;;23.60;99.90;;;;;;5050427;28;20048;-51
2022/07/10 08:44:26;;;;;;;2.28;1.00;;;23.70;99.90;;;;;;5051329;28;20365;-52
2022/07/10 08:46:52;;;;;;;1.20;1.00;;;23.80;99.90;;;;;;5012815;28;20033;-52
2022/07/10 08:49:23;;;;;;;1.42;1.25;;;24.10;99.90;;;;;;5051001;28;20463;-52
2022/07/10 08:52:21;;;;;;;1.52;0.90;;;24.00;99.90;;;;;;5051392;28;20052;-50
2022/07/10 08:54:47;;;;;;;1.85;0.90;;;24.30;99.90;;;;;;5043939;28;20488;-53
2022/07/10 08:57:15;;;;;;;1.88;1.00;;;24.30;99.90;;;;;;5040440;28;20066;-51
2022/07/10 08:59:41;;;;;;;4.53;0.80;;;24.20;99.90;;;;;;5043269;28;20020;-52
2022/07/10 09:02:07;;;;;;;1.30;0.90;;;23.90;99.90;;;;;;5037721;28;20396;-53
2022/07/10 09:04:32;;;;;;;0.98;0.82;;;24.10;99.90;;;;;;5049036;28;20017;-49
2022/07/10 09:06:58;;;;;;;2.20;1.00;;;24.40;99.90;;;;;;5047587;28;20029;-51
2022/07/10 09:09:24;;;;;;;1.65;1.00;;;24.60;99.90;;;;;;5050072;28;20117;-50
2022/07/10 09:11:58;;;;;;;1.33;1.08;;;24.50;99.90;;;;;;5015724;28;20107;-52
2022/07/10 09:14:27;;;;;;;0.93;0.93;;;24.90;99.90;;;;;;5003399;28;20035;-51
2022/07/10 09:16:54;;;;;;;0.90;0.80;;;24.90;99.90;;;;;;5053745;28;20113;-51
2022/07/10 09:19:26;;;;;;;3.15;1.10;;;25.00;99.90;;;;;;5016259;28;20041;-50
2022/07/10 09:22:05;;;;;;;0.90;0.75;;;25.30;99.90;;;;;;5043430;28;20029;-51
2022/07/10 09:24:45;;;;;;;1.58;0.93;;;25.10;99.90;;;;;;5052445;28;20033;-49
2022/07/10 09:27:14;;;;;;;2.47;1.42;;;25.00;99.90;;;;;;5031302;28;20068;-50
2022/07/10 09:29:57;;;;;;;2.22;1.55;;;25.10;99.90;;;;;;5048578;28;20038;-51
2022/07/10 09:32:24;;;;;;;2.78;1.48;;;25.20;99.90;;;;;;5045277;28;20467;-51
2022/07/10 09:37:39;;;;;;;1.25;1.00;;;25.30;99.90;;;;;;5053289;28;20055;-51
2022/07/10 09:40:07;;;;;;;1.40;1.10;;;24.90;99.90;;;;;;5050975;28;20061;-49
2022/07/10 09:42:39;;;;;;;1.08;0.70;;;24.90;99.90;;;;;;4967663;28;20041;-50
2022/07/10 09:45:17;;;;;;;0.85;0.80;;;24.90;99.90;;;;;;5045082;28;20040;-50
2022/07/10 09:48:00;;;;;;;1.75;1.00;;;25.40;99.90;;;;;;5052446;28;20029;-50
2022/07/10 09:50:29;;;;;;;2.05;0.90;;;25.50;99.90;;;;;;4989738;28;20041;-50
2022/07/10 09:52:59;;;;;;;0.80;0.80;;;;;;;;;;4973585;28;20462;-51
2022/07/10 09:55:26;;;;;;;1.58;1.00;;;;;;;;;;4989643;28;20049;-52
2022/07/10 09:58:00;;;;;;;1.30;0.93;;;26.20;99.90;;;;;;4958058;28;20042;-53
2022/07/10 10:00:33;;;;;;;1.20;1.10;;;26.00;99.90;;;;;;4986244;28;20055;-55
2022/07/10 10:03:07;;;;;;;2.38;0.95;;;26.10;99.90;;;;;;4982653;28;20065;-54
2022/07/10 10:05:58;;;;;;;1.27;0.98;;;26.50;99.90;;;;;;4971574;28;20026;-54
2022/07/10 10:08:30;;;;;;;1.15;0.80;;;26.50;99.90;;;;;;4985848;28;20478;-54
2022/07/10 10:10:57;;;;;;;1.20;0.73;;;27.10;99.90;;;;;;4971102;28;20045;-54
2022/07/10 10:13:27;;;;;;;1.23;0.80;;;26.90;99.90;;;;;;4940615;28;20060;-52
2022/07/10 10:15:53;;;;;;;1.52;0.70;;;27.10;99.90;;;;;;4983412;28;20137;-56
2022/07/10 10:18:21;;;;;;;2.17;0.88;;;27.10;99.90;;;;;;4982803;28;20742;-50
2022/07/10 10:20:48;;;;;;;0.50;0.50;;;;;;;;;;4952012;28;20507;-50
2022/07/10 10:23:17;;;;;;;1.15;0.90;;;;;;;;;;5048457;28;20032;-54
2022/07/10 10:25:44;;;;;;;1.13;0.60;;;;;;;;;;5040655;28;20032;-52
2022/07/10 10:28:12;;;;;;;0.77;0.75;;;27.00;99.90;;;;;;5011844;28;20045;-53
2022/07/10 10:30:45;;;;;;;0.80;0.77;;;26.40;99.90;;;;;;4991901;28;20044;-55
2022/07/10 10:33:32;;;;;;;1.30;0.70;;;26.50;99.90;;;;;;5014465;28;20041;-53
2022/07/10 10:36:02;;;;;;;2.17;1.02;;;26.30;99.90;;;;;;5050554;28;20029;-54
2022/07/10 10:38:58;;;;;;;0.98;0.65;;;26.30;99.90;;;;;;5051626;28;20025;-55
2022/07/10 10:41:25;;;;;;;1.05;0.80;;;25.70;98.30;;;;;;5015339;28;20049;-55
2022/07/10 10:44:09;;;;;;;0.80;0.75;;;26.10;97.80;;;;;;5052436;28;20473;-55
2022/07/10 10:46:36;;;;;;;0.80;0.52;;;25.90;99.00;;;;;;5049616;28;20037;-52
2022/07/10 10:49:08;;;;;;;1.80;0.68;;;25.70;97.00;;;;;;5044246;28;20029;-53
2022/07/10 10:51:59;;;;;;;0.80;0.68;;;26.10;97.60;;;;;;5049678;28;20029;-53
2022/07/10 10:54:29;;;;;;;0.70;0.70;;;26.40;96.70;;;;;;5041388;28;20086;-56
2022/07/10 10:57:15;;;;;;;1.10;0.75;;;26.30;96.50;;;;;;5050362;28;20082;-56
2022/07/10 10:59:50;;;;;;;1.10;0.52;;;26.50;96.20;;;;;;5040752;28;20322;-52
2022/07/10 11:02:23;;;;;;;1.08;0.70;;;27.00;96.60;;;;;;5052050;28;20036;-54
2022/07/10 11:05:18;;;;;;;1.13;0.70;;;26.70;96.00;;;;;;5045061;28;20112;-53
2022/07/10 11:08:03;;;;;;;0.93;0.70;;;26.20;95.50;;;;;;5047623;28;20060;-53
2022/07/10 11:10:41;;;;;;;0.73;0.70;;;26.50;96.20;;;;;;5013268;28;20116;-55
2022/07/10 11:13:17;;;;;;;0.70;0.70;;;26.70;96.10;;;;;;5014265;28;20037;-53
2022/07/10 11:15:49;;;;;;;1.42;0.77;;;26.90;95.90;;;;;;5016742;28;20514;-55
2022/07/10 11:18:16;;;;;;;1.35;0.75;;;26.80;95.20;;;;;;5045513;28;20383;-54
2022/07/10 11:20:50;;;;;;;1.73;0.77;;;26.60;94.80;;;;;;5051444;28;20171;-52
2022/07/10 11:23:34;;;;;;;0.60;0.60;;;26.80;94.90;;;;;;5029823;28;20284;-53
2022/07/10 11:26:07;;;;;;;0.57;0.57;;;27.10;97.70;;;;;;5044315;28;20369;-55
2022/07/10 11:28:42;;;;;;;1.25;1.00;;;26.50;94.30;;;;;;5044742;28;20028;-53
2022/07/10 11:31:07;;;;;;;1.25;1.00;;;26.20;94.70;;;;;;5003344;28;20061;-55
2022/07/10 11:33:43;;;;;;;1.42;0.93;;;26.20;95.00;;;;;;5028837;28;20061;-53
2022/07/10 11:36:13;;;;;;;0.52;0.52;;;26.60;95.10;;;;;;5029473;28;20163;-54
2022/07/10 11:38:40;;;;;;;2.10;1.08;;;26.50;93.90;;;;;;5030843;28;20033;-52
2022/07/10 11:41:21;;;;;;;1.77;0.98;;;26.50;93.60;;;;;;5030623;28;20507;-53
2022/07/10 11:43:54;;;;;;;1.02;1.00;;;26.10;93.40;;;;;;5024652;28;20047;-55
2022/07/10 11:46:22;;;;;;;2.55;1.58;;;26.00;93.70;;;;;;5041191;28;20394;-52
2022/07/10 11:48:56;;;;;;;3.47;2.67;;;25.90;94.90;;;;;;5025917;28;20017;-55
2022/07/10 11:51:28;;;;;;;1.83;1.40;;;25.60;94.90;;;;;;5030811;28;20034;-52
2022/07/10 11:53:57;;;;;;;1.25;1.15;;;25.80;94.60;;;;;;5030715;28;20033;-52
2022/07/10 11:56:24;;;;;;;1.25;0.80;;;25.80;95.00;;;;;;5026022;28;20064;-54
2022/07/10 11:59:01;;;;;;;2.33;1.00;;;25.70;94.70;;;;;;5025267;28;20083;-52
2022/07/10 12:01:33;;;;;;;1.17;0.80;;;25.90;94.50;;;;;;5031037;28;20029;-54
2022/07/10 12:04:04;;;;;;;1.65;1.02;;;26.30;94.20;;;;;;5031213;28;20439;-53
2022/07/10 12:06:32;;;;;;;0.85;0.85;;;26.60;94.20;;;;;;5030820;28;20087;-52
2022/07/10 12:09:06;;;;;;;1.10;1.00;;;26.50;93.30;;;;;;5030412;28;20262;-53
2022/07/10 12:11:32;;;;;;;2.47;1.23;;;26.50;93.20;;;;;;5030828;28;20082;-54
2022/07/10 12:14:18;;;;;;;1.33;1.00;;;26.40;94.20;;;;;;5025136;28;20507;-52
2022/07/10 12:16:45;;;;;;;3.08;1.40;;;;;;;;;;5028118;28;20033;-51
2022/07/10 12:19:22;;;;;;;1.35;1.08;;;27.20;95.30;;;;;;5025004;28;20488;-51
2022/07/10 12:21:48;;;;;;;1.10;1.00;;;27.60;93.70;;;;;;5028650;28;20565;-55
2022/07/10 12:24:16;;;;;;;1.10;1.00;;;27.50;93.20;;;;;;5020509;28;20030;-52
2022/07/10 12:26:44;;;;;;;1.83;1.42;;;27.50;92.70;;;;;;5030445;28;20086;-53
2022/07/10 12:29:29;;;;;;;2.40;1.20;;;;;;;;;;5029701;28;20530;-52
2022/07/10 12:31:56;;;;;;;1.25;0.93;;;;;;;;;;5040910;28;20052;-52
2022/07/10 12:34:39;;;;;;;1.98;1.10;;;28.50;92.80;;;;;;5036783;28;20021;-55
2022/07/10 12:37:11;;;;;;;1.95;1.13;;;28.70;91.40;;;;;;5050016;28;20488;-51
2022/07/10 12:39:45;;;;;;;1.65;1.10;;;28.50;91.40;;;;;;5047509;28;20897;-54
2022/07/10 12:42:11;;;;;;;1.38;0.90;;;28.40;91.10;;;;;;5042020;28;20095;-52
2022/07/10 12:44:40;;;;;;;1.25;0.90;;;28.50;90.70;;;;;;5054206;28;20052;-53
2022/07/10 12:47:11;;;;;;;0.85;0.82;;;28.80;91.20;;;;;;5052554;28;20033;-55
2022/07/10 12:49:49;;;;;;;0.73;0.73;;;29.40;91.90;;;;;;5054764;28;20108;-54
2022/07/10 12:52:21;;;;;;;2.22;1.00;;;;;;;;;;5051840;28;20380;-52
2022/07/10 12:54:47;;;;;;;1.08;0.82;;;;;;;;;;5050251;28;20032;-52
2022/07/10 12:57:13;;;;;;;1.55;1.00;;;;;;;;;;5052314;28;20104;-55
2022/07/10 12:59:41;;;;;;;1.42;0.95;;;;;;;;;;5048547;28;20033;-54
2022/07/10 13:02:22;;;;;;;3.40;1.20;;;;;;;;;;5048880;28;20045;-52
2022/07/10 13:04:53;;;;;;;1.67;1.00;;;;;;;;;;4991126;28;20163;-52
2022/07/10 13:07:18;;;;;;;2.03;1.08;;;29.30;99.90;;;;;;5053726;28;20033;-53
2022/07/10 13:09:45;;;;;;;1.10;1.00;;;29.40;94.80;;;;;;5051937;28;20098;-53
2022/07/10 13:12:10;;;;;;;0.90;0.85;;;29.30;88.10;;;;;;5051535;28;20043;-53
2022/07/10 13:14:36;;;;;;;1.33;0.90;;;29.50;90.90;;;;;;5045556;28;20108;-56
2022/07/10 13:17:02;;;;;;;1.55;0.80;;;29.70;95.90;;;;;;5050287;28;20025;-52
2022/07/10 13:19:28;;;;;;;2.88;1.23;;;29.10;95.00;;;;;;5015436;28;20485;-54
2022/07/10 13:21:53;;;;;;;1.52;1.10;;;29.20;96.20;;;;;;5049808;28;20041;-53
2022/07/10 13:24:19;;;;;;;0.85;0.70;;;29.30;95.90;;;;;;4980358;28;20048;-55